createdAt,value
2024-02-18T00:00:00.905Z,102358.56
2024-02-18T00:02:30.007Z,102352.34
2024-02-18T00:04:58.913Z,102356.78
2024-02-18T00:07:27.423Z,102358.56
2024-02-18T00:09:57.048Z,102356.78
2024-02-18T00:12:26.111Z,102355.91
2024-02-18T00:14:55.906Z,102353.25
2024-02-18T00:17:24.535Z,102357.69
2024-02-18T00:19:52.667Z,102363.88
2024-02-18T00:22:21.034Z,102363.00
2024-02-18T00:24:49.755Z,102373.63
2024-02-18T00:27:18.139Z,102367.44
2024-02-18T00:29:46.158Z,102360.38
2024-02-18T00:32:14.613Z,102362.16
2024-02-18T00:34:42.698Z,102363.94
2024-02-18T00:37:11.280Z,102361.28
2024-02-18T00:39:39.335Z,102356.84
2024-02-18T00:42:10.112Z,102362.16
2024-02-18T00:44:38.443Z,102356.84
2024-02-18T00:47:07.623Z,102345.34
2024-02-18T00:49:36.149Z,102349.78
2024-02-18T00:52:05.001Z,102348.00
2024-02-18T00:54:33.140Z,102340.03
2024-02-18T00:57:01.870Z,102327.66
2024-02-18T00:59:29.821Z,102336.50
2024-02-18T01:01:58.285Z,102337.41
2024-02-18T01:04:26.419Z,102337.41
2024-02-18T01:06:54.808Z,102338.28
2024-02-18T01:09:22.914Z,102334.78
2024-02-18T01:11:52.531Z,102340.97
2024-02-18T01:14:21.033Z,102343.63
2024-02-18T01:16:51.106Z,102342.75
2024-02-18T01:19:19.205Z,102347.19
2024-02-18T01:21:47.730Z,102345.41
2024-02-18T01:24:15.775Z,102347.19
2024-02-18T01:26:44.164Z,102347.19
2024-02-18T01:29:12.138Z,102350.78
2024-02-18T01:31:40.543Z,102349.00
2024-02-18T01:34:08.661Z,102349.00
2024-02-18T01:36:37.575Z,102346.38
2024-02-18T01:39:05.660Z,102345.47
2024-02-18T01:41:34.492Z,102356.13
2024-02-18T01:44:02.494Z,102346.38
2024-02-18T01:46:31.218Z,102341.06
2024-02-18T01:48:59.375Z,102340.19
2024-02-18T01:51:28.000Z,102341.94
2024-02-18T01:53:56.057Z,102338.44
2024-02-18T01:56:24.407Z,102338.44
2024-02-18T01:58:52.456Z,102329.59
2024-02-18T02:01:21.329Z,102336.66
2024-02-18T02:03:49.467Z,102336.66
2024-02-18T02:06:18.031Z,102325.16
2024-02-18T02:08:46.246Z,102331.38
2024-02-18T02:11:14.978Z,102338.47
2024-02-18T02:13:43.034Z,102343.78
2024-02-18T02:16:11.510Z,102342.03
2024-02-18T02:18:39.719Z,102347.34
2024-02-18T02:21:09.151Z,102348.22
2024-02-18T02:23:37.224Z,102345.56
2024-02-18T02:26:06.079Z,102356.19
2024-02-18T02:28:35.784Z,102353.53
2024-02-18T02:31:04.185Z,102348.22
2024-02-18T02:33:32.320Z,102345.59
2024-02-18T02:36:01.172Z,102351.78
2024-02-18T02:38:29.497Z,102353.56
2024-02-18T02:40:57.886Z,102349.16
2024-02-18T02:43:26.044Z,102350.91
2024-02-18T02:45:54.623Z,102350.03
2024-02-18T02:48:22.725Z,102350.91
2024-02-18T02:50:51.182Z,102346.50
2024-02-18T02:53:19.224Z,102348.28
2024-02-18T02:55:47.547Z,102337.66
2024-02-18T02:58:15.532Z,102338.53
2024-02-18T03:00:43.962Z,102340.34
2024-02-18T03:03:12.017Z,102346.53
2024-02-18T03:05:40.699Z,102348.31
2024-02-18T03:08:10.433Z,102352.75
2024-02-18T03:10:38.776Z,102358.06
2024-02-18T03:13:06.924Z,102356.28
2024-02-18T03:15:39.038Z,102359.00
2024-02-18T03:18:07.151Z,102366.97
2024-02-18T03:20:36.382Z,102363.38
2024-02-18T03:23:04.634Z,102371.34
2024-02-18T03:25:33.122Z,102359.91
2024-02-18T03:28:01.661Z,102366.09
2024-02-18T03:30:30.213Z,102356.38
2024-02-18T03:32:58.248Z,102344.00
2024-02-18T03:35:29.350Z,102347.50
2024-02-18T03:37:57.795Z,102344.00
2024-02-18T03:40:26.225Z,102356.38
2024-02-18T03:42:54.362Z,102352.84
2024-02-18T03:45:22.893Z,102344.00
2024-02-18T03:47:51.033Z,102347.53
2024-02-18T03:50:19.454Z,102353.75
2024-02-18T03:52:47.726Z,102345.78
2024-02-18T03:55:16.467Z,102351.09
2024-02-18T03:57:44.609Z,102361.72
2024-02-18T04:00:13.396Z,102357.31
2024-02-18T04:02:42.758Z,102351.13
2024-02-18T04:05:11.900Z,102357.31
2024-02-18T04:07:40.102Z,102352.91
2024-02-18T04:10:08.828Z,102355.56
2024-02-18T04:12:38.040Z,102359.97
2024-02-18T04:15:06.782Z,102356.44
2024-02-18T04:17:35.177Z,102348.50
2024-02-18T04:20:04.669Z,102352.94
2024-02-18T04:22:33.182Z,102358.22
2024-02-18T04:25:02.478Z,102352.94
2024-02-18T04:27:30.739Z,102352.06
2024-02-18T04:29:59.179Z,102351.16
2024-02-18T04:32:27.322Z,102355.63
2024-02-18T04:34:56.002Z,102363.59
2024-02-18T04:37:24.218Z,102358.28
2024-02-18T04:39:53.864Z,102355.63
2024-02-18T04:42:21.983Z,102356.50
2024-02-18T04:44:50.418Z,102348.56
2024-02-18T04:47:18.498Z,102355.63
2024-02-18T04:49:47.030Z,102353.88
2024-02-18T04:52:15.143Z,102353.88
2024-02-18T04:54:43.502Z,102356.53
2024-02-18T04:57:11.627Z,102351.25
2024-02-18T04:59:40.051Z,102357.44
2024-02-18T05:02:09.125Z,102359.22
2024-02-18T05:04:37.539Z,102356.56
2024-02-18T05:07:05.975Z,102356.56
2024-02-18T05:09:34.522Z,102356.56
2024-02-18T05:12:02.564Z,102358.31
2024-02-18T05:14:31.377Z,102356.50
2024-02-18T05:17:00.973Z,102358.28
2024-02-18T05:19:30.315Z,102356.47
2024-02-18T05:21:58.505Z,102354.69
2024-02-18T05:24:27.093Z,102363.38
2024-02-18T05:26:55.282Z,102370.41
2024-02-18T05:29:24.004Z,102369.28
2024-02-18T05:31:52.065Z,102363.09
2024-02-18T05:34:20.614Z,102361.25
2024-02-18T05:36:48.937Z,102361.97
2024-02-18T05:39:17.808Z,102364.53
2024-02-18T05:41:45.779Z,102365.06
2024-02-18T05:44:14.231Z,102357.75
2024-02-18T05:46:42.257Z,102367.44
2024-02-18T05:49:10.867Z,102371.78
2024-02-18T05:51:39.002Z,102378.84
2024-02-18T05:54:07.520Z,102377.78
2024-02-18T05:56:35.572Z,102377.63
2024-02-18T05:59:05.137Z,102377.34
2024-02-18T06:01:33.421Z,102386.38
2024-02-18T06:04:02.117Z,102383.63
2024-02-18T06:06:31.336Z,102382.72
2024-02-18T06:08:59.815Z,102383.50
2024-02-18T06:11:28.023Z,102382.69
2024-02-18T06:13:56.404Z,102388.00
2024-02-18T06:16:24.420Z,102395.38
2024-02-18T06:18:53.138Z,102399.06
2024-02-18T06:21:24.360Z,102394.56
2024-02-18T06:23:57.711Z,102397.38
2024-02-18T06:26:25.965Z,102394.81
2024-02-18T06:28:54.463Z,102388.59
2024-02-18T06:31:23.375Z,102394.75
2024-02-18T06:33:51.999Z,102401.84
2024-02-18T06:36:20.456Z,102404.56
2024-02-18T06:38:52.459Z,102402.03
2024-02-18T06:41:22.104Z,102406.44
2024-02-18T06:43:50.498Z,102410.97
2024-02-18T06:46:18.710Z,102410.16
2024-02-18T06:48:49.187Z,102417.34
2024-02-18T06:51:17.475Z,102427.84
2024-02-18T06:53:46.042Z,102432.41
2024-02-18T06:56:14.244Z,102426.97
2024-02-18T06:58:42.623Z,102419.09
2024-02-18T07:01:11.013Z,102427.97
2024-02-18T07:03:39.475Z,102422.72
2024-02-18T07:06:07.599Z,102427.16
2024-02-18T07:08:36.072Z,102430.75
2024-02-18T07:11:04.637Z,102428.97
2024-02-18T07:13:33.126Z,102427.25
2024-02-18T07:16:01.253Z,102433.44
2024-02-18T07:18:30.020Z,102429.91
2024-02-18T07:20:58.174Z,102434.38
2024-02-18T07:23:26.557Z,102438.81
2024-02-18T07:25:55.166Z,102437.13
2024-02-18T07:28:23.679Z,102435.31
2024-02-18T07:30:51.930Z,102435.31
2024-02-18T07:33:20.580Z,102442.44
2024-02-18T07:35:49.098Z,102435.38
2024-02-18T07:38:17.543Z,102431.81
2024-02-18T07:40:45.732Z,102439.81
2024-02-18T07:43:16.527Z,102440.72
2024-02-18T07:45:44.806Z,102438.06
2024-02-18T07:48:14.459Z,102438.97
2024-02-18T07:50:42.642Z,102442.50
2024-02-18T07:53:11.299Z,102439.00
2024-02-18T07:55:39.418Z,102446.06
2024-02-18T07:58:07.889Z,102441.66
2024-02-18T08:00:36.407Z,102438.13
2024-02-18T08:03:05.066Z,102430.16
2024-02-18T08:05:33.121Z,102434.59
2024-02-18T08:08:01.790Z,102431.06
2024-02-18T08:10:29.768Z,102430.16
2024-02-18T08:12:58.121Z,102428.41
2024-02-18T08:15:26.874Z,102431.91
2024-02-18T08:17:55.377Z,102419.50
2024-02-18T08:20:23.497Z,102419.53
2024-02-18T08:22:51.856Z,102416.84
2024-02-18T08:25:19.830Z,102416.84
2024-02-18T08:27:48.317Z,102423.94
2024-02-18T08:30:16.329Z,102424.81
2024-02-18T08:32:46.856Z,102421.25
2024-02-18T08:35:16.311Z,102417.69
2024-02-18T08:37:46.329Z,102415.03
2024-02-18T08:40:14.453Z,102417.69
2024-02-18T08:42:42.898Z,102422.13
2024-02-18T08:45:11.116Z,102421.22
2024-02-18T08:47:39.644Z,102417.66
2024-02-18T08:50:08.207Z,102422.06
2024-02-18T08:52:36.718Z,102421.19
2024-02-18T08:55:04.925Z,102425.63
2024-02-18T08:57:33.350Z,102422.06
2024-02-18T09:00:03.723Z,102424.69
2024-02-18T09:02:32.197Z,102420.25
2024-02-18T09:05:03.270Z,102421.13
2024-02-18T09:07:32.710Z,102421.13
2024-02-18T09:10:00.927Z,102428.19
2024-02-18T09:12:29.452Z,102419.31
2024-02-18T09:14:57.549Z,102425.47
2024-02-18T09:17:26.147Z,102420.16
2024-02-18T09:19:54.863Z,102417.50
2024-02-18T09:22:23.466Z,102421.91
2024-02-18T09:24:51.741Z,102421.03
2024-02-18T09:27:20.425Z,102419.22
2024-02-18T09:29:51.889Z,102417.41
2024-02-18T09:32:22.243Z,102413.88
2024-02-18T09:34:50.682Z,102416.53
2024-02-18T09:37:19.725Z,102415.63
2024-02-18T09:39:47.894Z,102419.13
2024-02-18T09:42:16.742Z,102413.81
2024-02-18T09:44:46.391Z,102417.34
2024-02-18T09:47:15.107Z,102420.81
2024-02-18T09:49:44.430Z,102423.47
2024-02-18T09:52:13.242Z,102420.81
2024-02-18T09:54:41.678Z,102420.81
2024-02-18T09:57:10.267Z,102417.25
2024-02-18T09:59:38.483Z,102422.59
2024-02-18T10:02:07.460Z,102427.00
2024-02-18T10:04:35.988Z,102426.13
2024-02-18T10:07:05.236Z,102426.13
2024-02-18T10:09:33.566Z,102429.66
2024-02-18T10:12:02.171Z,102423.47
2024-02-18T10:14:30.345Z,102422.59
2024-02-18T10:16:58.858Z,102411.94
2024-02-18T10:19:27.188Z,102411.03
2024-02-18T10:21:55.792Z,102411.03
2024-02-18T10:24:27.022Z,102407.44
2024-02-18T10:26:56.043Z,102403.03
2024-02-18T10:29:25.483Z,102397.69
2024-02-18T10:31:54.076Z,102395.91
2024-02-18T10:34:22.371Z,102392.34
2024-02-18T10:36:51.263Z,102389.63
2024-02-18T10:39:19.441Z,102382.44
2024-02-18T10:41:49.587Z,102388.56
2024-02-18T10:44:17.938Z,102391.03
2024-02-18T10:46:49.777Z,102380.22
2024-02-18T10:49:22.847Z,102380.00
2024-02-18T10:51:53.361Z,102382.47
2024-02-18T10:54:40.144Z,102376.78
2024-02-18T10:57:08.633Z,102371.28
2024-02-18T10:59:54.828Z,102369.25
2024-02-18T11:02:27.172Z,102366.44
2024-02-18T11:04:55.505Z,102369.81
2024-02-18T11:07:24.119Z,102360.78
2024-02-18T11:09:52.330Z,102354.47
2024-02-18T11:12:20.855Z,102352.50
2024-02-18T11:14:49.961Z,102347.81
2024-02-18T11:17:18.705Z,102351.50
2024-02-18T11:19:46.880Z,102346.19
2024-02-18T11:22:17.223Z,102347.81
2024-02-18T11:24:49.239Z,102339.72
2024-02-18T11:27:18.024Z,102342.50
2024-02-18T11:29:49.422Z,102332.81
2024-02-18T11:32:18.669Z,102332.06
2024-02-18T11:34:50.355Z,102326.75
2024-02-18T11:37:35.082Z,102329.44
2024-02-18T11:40:21.546Z,102315.38
2024-02-18T11:42:50.729Z,102310.16
2024-02-18T11:45:21.333Z,102311.91
2024-02-18T11:47:53.579Z,102310.25
2024-02-18T11:50:22.151Z,102314.63
2024-02-18T11:52:51.654Z,102315.66
2024-02-18T11:55:19.976Z,102303.19
2024-02-18T11:57:48.934Z,102299.66
2024-02-18T12:00:20.835Z,102299.69
2024-02-18T12:02:52.255Z,102300.69
2024-02-18T12:05:24.628Z,102296.22
2024-02-18T12:07:56.471Z,102295.44
2024-02-18T12:10:25.008Z,102298.09
2024-02-18T12:12:53.707Z,102305.19
2024-02-18T12:15:23.891Z,102289.19
2024-02-18T12:17:55.384Z,102287.44
2024-02-18T12:20:24.812Z,102292.75
2024-02-18T12:22:55.566Z,102281.28
2024-02-18T12:25:24.032Z,102280.41
2024-02-18T12:27:52.679Z,102276.00
2024-02-18T12:30:23.739Z,102281.38
2024-02-18T12:32:57.668Z,102268.03
2024-02-18T12:35:27.993Z,102257.34
2024-02-18T12:37:56.476Z,102259.16
2024-02-18T12:40:25.225Z,102256.53
2024-02-18T12:43:14.554Z,102259.31
2024-02-18T12:45:47.321Z,102250.47
2024-02-18T12:48:21.556Z,102245.13
2024-02-18T12:51:09.670Z,102244.34
2024-02-18T12:53:41.843Z,102243.44
2024-02-18T12:56:10.752Z,102241.69
2024-02-18T12:58:39.954Z,102241.69
2024-02-18T13:01:10.869Z,102236.44
2024-02-18T13:03:40.958Z,102229.31
2024-02-18T13:06:11.812Z,102224.91
2024-02-18T13:08:40.665Z,102224.91
2024-02-18T13:11:10.045Z,102219.56
2024-02-18T13:13:38.541Z,102222.22
2024-02-18T13:16:06.811Z,102211.72
2024-02-18T13:18:35.571Z,102212.53
2024-02-18T13:21:03.921Z,102213.44
2024-02-18T13:23:32.472Z,102205.50
2024-02-18T13:26:00.527Z,102198.47
2024-02-18T13:28:29.126Z,102197.63
2024-02-18T13:30:57.372Z,102198.50
2024-02-18T13:33:26.110Z,102193.13
2024-02-18T13:35:54.294Z,102188.78
2024-02-18T13:38:22.932Z,102195.03
2024-02-18T13:40:51.111Z,102193.25
2024-02-18T13:43:19.645Z,102190.59
2024-02-18T13:45:47.848Z,102185.22
2024-02-18T13:48:16.468Z,102189.72
2024-02-18T13:50:44.778Z,102190.59
2024-02-18T13:53:13.329Z,102188.84
2024-02-18T13:55:41.472Z,102187.09
2024-02-18T13:58:10.147Z,102184.47
2024-02-18T14:00:38.925Z,102185.38
2024-02-18T14:03:07.651Z,102184.50
2024-02-18T14:05:36.035Z,102185.41
2024-02-18T14:08:04.844Z,102181.06
2024-02-18T14:10:32.922Z,102177.47
2024-02-18T14:13:01.608Z,102176.66
2024-02-18T14:15:31.472Z,102178.41
2024-02-18T14:18:00.161Z,102176.66
2024-02-18T14:20:28.820Z,102175.78
2024-02-18T14:22:57.262Z,102174.00
2024-02-18T14:25:25.352Z,102174.97
2024-02-18T14:27:53.753Z,102162.56
2024-02-18T14:30:23.031Z,102167.94
2024-02-18T14:32:51.497Z,102165.28
2024-02-18T14:35:19.609Z,102162.69
2024-02-18T14:37:48.044Z,102162.69
2024-02-18T14:40:16.235Z,102162.72
2024-02-18T14:42:44.921Z,102156.66
2024-02-18T14:45:15.894Z,102157.53
2024-02-18T14:47:44.742Z,102160.25
2024-02-18T14:50:16.199Z,102159.41
2024-02-18T14:52:44.687Z,102157.63
2024-02-18T14:55:12.919Z,102155.91
2024-02-18T14:57:41.426Z,102154.16
2024-02-18T15:00:18.200Z,102151.50
2024-02-18T15:02:48.596Z,102143.56
2024-02-18T15:05:16.982Z,102151.56
2024-02-18T15:07:45.613Z,102148.88
2024-02-18T15:10:13.670Z,102146.34
2024-02-18T15:12:42.310Z,102137.50
2024-02-18T15:15:10.523Z,102140.25
2024-02-18T15:17:41.984Z,102142.03
2024-02-18T15:20:10.297Z,102129.63
2024-02-18T15:22:38.941Z,102134.09
2024-02-18T15:25:07.758Z,102128.81
2024-02-18T15:27:36.485Z,102138.56
2024-02-18T15:30:05.474Z,102136.81
2024-02-18T15:32:33.865Z,102131.56
2024-02-18T15:35:02.254Z,102135.16
2024-02-18T15:37:30.704Z,102129.84
2024-02-18T15:39:58.802Z,102133.41
2024-02-18T15:42:27.520Z,102136.97
2024-02-18T15:44:55.597Z,102132.53
2024-02-18T15:47:23.993Z,102125.47
2024-02-18T15:49:52.167Z,102126.34
2024-02-18T15:52:20.612Z,102125.50
2024-02-18T15:54:48.695Z,102128.16
2024-02-18T15:57:17.066Z,102127.31
2024-02-18T15:59:45.279Z,102133.53
2024-02-18T16:02:13.602Z,102126.47
2024-02-18T16:04:43.410Z,102132.66
2024-02-18T16:07:12.691Z,102119.34
2024-02-18T16:09:48.425Z,102121.84
2024-02-18T16:12:17.064Z,102121.69
2024-02-18T16:14:45.140Z,102125.84
2024-02-18T16:17:13.561Z,102120.44
2024-02-18T16:19:41.885Z,102118.47
2024-02-18T16:22:10.757Z,102115.63
2024-02-18T16:24:40.353Z,102117.94
2024-02-18T16:27:10.099Z,102118.72
2024-02-18T16:29:38.319Z,102121.22
2024-02-18T16:32:06.929Z,102118.59
2024-02-18T16:34:36.309Z,102115.03
2024-02-18T16:37:05.133Z,102115.03
2024-02-18T16:39:36.818Z,102108.00
2024-02-18T16:42:05.777Z,102105.25
2024-02-18T16:44:33.857Z,102094.59
2024-02-18T16:47:04.800Z,102104.41
2024-02-18T16:49:33.263Z,102092.94
2024-02-18T16:52:02.072Z,102096.38
2024-02-18T16:54:30.320Z,102098.22
2024-02-18T16:56:58.936Z,102092.94
2024-02-18T16:59:27.091Z,102096.53
2024-02-18T17:01:56.013Z,102099.25
2024-02-18T17:04:24.346Z,102093.13
2024-02-18T17:06:53.065Z,102103.97
2024-02-18T17:09:21.204Z,102101.41
2024-02-18T17:11:49.665Z,102097.66
2024-02-18T17:14:17.790Z,102102.09
2024-02-18T17:16:46.254Z,102096.66
2024-02-18T17:19:14.516Z,102098.34
2024-02-18T17:21:43.953Z,102102.84
2024-02-18T17:24:12.276Z,102097.50
2024-02-18T17:26:40.905Z,102099.34
2024-02-18T17:29:09.042Z,102109.13
2024-02-18T17:31:38.500Z,102107.47
2024-02-18T17:34:10.079Z,102104.78
2024-02-18T17:36:38.725Z,102109.25
2024-02-18T17:39:09.440Z,102108.41
2024-02-18T17:41:38.266Z,102107.50
2024-02-18T17:44:06.366Z,102110.13
2024-02-18T17:46:34.956Z,102109.28
2024-02-18T17:49:03.270Z,102101.31
2024-02-18T17:51:34.932Z,102113.78
2024-02-18T17:54:03.649Z,102111.16
2024-02-18T17:56:34.817Z,102104.94
2024-02-18T17:59:08.551Z,102108.56
2024-02-18T18:01:37.341Z,102091.69
2024-02-18T18:04:05.811Z,102097.03
2024-02-18T18:06:36.102Z,102097.06
2024-02-18T18:09:04.276Z,102087.31
2024-02-18T18:11:32.896Z,102085.56
2024-02-18T18:14:01.558Z,102085.66
2024-02-18T18:16:29.992Z,102083.88
2024-02-18T18:18:58.153Z,102086.53
2024-02-18T18:21:27.482Z,102090.97
2024-02-18T18:23:58.575Z,102086.59
2024-02-18T18:26:27.490Z,102091.91
2024-02-18T18:28:55.529Z,102087.53
2024-02-18T18:31:24.189Z,102084.00
2024-02-18T18:33:52.536Z,102071.56
2024-02-18T18:36:20.948Z,102071.59
2024-02-18T18:38:49.054Z,102078.72
2024-02-18T18:41:17.745Z,102060.13
2024-02-18T18:43:45.758Z,102061.94
2024-02-18T18:46:14.274Z,102057.50
2024-02-18T18:48:42.566Z,102054.00
2024-02-18T18:51:11.022Z,102046.91
2024-02-18T18:53:39.669Z,102042.47
2024-02-18T18:56:10.591Z,102040.72
2024-02-18T18:58:40.294Z,102024.84
2024-02-18T19:01:08.798Z,102018.66
2024-02-18T19:03:37.262Z,102015.13
2024-02-18T19:06:06.050Z,102007.13
2024-02-18T19:08:34.416Z,102010.72
2024-02-18T19:11:03.402Z,102008.03
2024-02-18T19:13:42.133Z,102003.91
2024-02-18T19:16:18.033Z,102009.16
2024-02-18T19:18:48.951Z,102005.59
2024-02-18T19:21:17.880Z,102009.16
2024-02-18T19:23:46.060Z,102003.84
2024-02-18T19:26:14.617Z,102023.34
2024-02-18T19:28:43.100Z,102023.34
2024-02-18T19:31:15.724Z,102028.69
2024-02-18T19:33:47.158Z,102026.13
2024-02-18T19:36:16.994Z,102025.13
2024-02-18T19:38:45.727Z,102022.44
2024-02-18T19:41:14.429Z,102019.78
2024-02-18T21:07:04.662Z,101959.78
2024-02-18T21:09:33.479Z,101970.44
2024-02-18T21:12:02.333Z,101973.97
2024-02-18T21:14:30.640Z,101982.88
2024-02-18T21:17:00.652Z,101975.88
2024-02-18T21:19:29.254Z,101980.38
2024-02-18T21:21:58.066Z,101981.28
2024-02-18T21:24:26.923Z,101976.88
2024-02-18T21:26:55.624Z,101976.03
2024-02-18T21:29:24.189Z,101976.94
2024-02-18T21:31:52.861Z,101970.78
2024-02-18T21:34:21.521Z,101975.22
2024-02-18T21:36:50.440Z,101973.47
2024-02-18T21:39:21.935Z,101969.94
2024-02-18T21:41:54.895Z,101961.03
2024-02-18T21:44:23.381Z,101961.97
2024-02-18T21:46:52.295Z,101955.78
2024-02-18T21:49:20.814Z,101954.00
2024-02-18T21:51:50.051Z,101954.00
2024-02-18T21:54:18.660Z,101951.38
2024-02-18T21:56:47.510Z,101946.06
2024-02-18T21:59:15.818Z,101936.34
2024-02-18T22:01:45.349Z,101935.44
2024-02-18T22:04:13.960Z,101947.88
2024-02-18T22:06:54.530Z,101937.25
2024-02-18T22:09:31.043Z,101947.88
2024-02-18T22:11:59.696Z,101954.06
2024-02-18T22:14:28.071Z,101947.88
2024-02-18T22:16:56.715Z,101944.38
2024-02-18T22:19:25.297Z,101934.63
2024-02-18T22:21:54.187Z,101927.56
2024-02-18T22:24:24.287Z,101923.13
2024-02-18T22:26:53.485Z,101925.84
2024-02-18T22:29:21.793Z,101917.91
2024-02-18T22:31:50.995Z,101909.91
2024-02-18T22:34:19.611Z,101924.09
2024-02-18T22:36:48.735Z,101928.53
2024-02-18T22:39:17.110Z,101926.78
2024-02-18T22:41:45.923Z,101923.22
2024-02-18T22:44:14.408Z,101914.38
2024-02-18T22:46:44.583Z,101908.16
2024-02-18T22:49:12.956Z,101901.09
2024-02-18T22:51:45.483Z,101895.78
2024-02-18T22:54:13.877Z,101892.25
2024-02-18T22:56:42.612Z,101902.00
2024-02-18T22:59:10.976Z,101895.81
2024-02-18T23:01:39.954Z,101893.19
2024-02-18T23:04:08.374Z,101880.75
2024-02-18T23:06:37.276Z,101880.78
2024-02-18T23:09:07.105Z,101884.31
2024-02-18T23:11:36.293Z,101887.88
2024-02-18T23:14:04.853Z,101879.88
2024-02-18T23:16:33.548Z,101873.75
2024-02-18T23:19:01.917Z,101870.19
2024-02-18T23:21:30.655Z,101865.78
2024-02-18T23:24:00.603Z,101856.91
2024-02-18T23:26:29.328Z,101854.25
2024-02-18T23:28:57.638Z,101844.50
2024-02-18T23:31:26.413Z,101858.69
2024-02-18T23:33:54.907Z,101855.16
2024-02-18T23:36:23.629Z,101852.50
2024-02-18T23:38:51.978Z,101855.19
2024-02-18T23:41:20.795Z,101859.63
2024-02-18T23:43:49.162Z,101856.97
2024-02-18T23:46:17.875Z,101847.25
2024-02-18T23:48:46.277Z,101849.00
2024-02-18T23:51:15.033Z,101833.94
2024-02-18T23:53:43.303Z,101836.59
2024-02-18T23:56:12.331Z,101833.06
2024-02-18T23:58:40.665Z,101828.66
